Time;durP1;ratioP1;P1;durP2;ratioP2;P2;SDS_P1;SDS_P2;PMS_P1;PMS_P2;Temp;Humidity;BMP_temperature;BMP_pressure;BME280_temperature;BME280_humidity;BME280_pressure;Samples;Min_cycle;Max_cycle;Signal;HPM_P1;HPM_P2
2022/06/26 00:00:32;;;;;;;9.40;6.53;;;;;;;;;;4907140;29;20056;-82
2022/06/26 00:02:59;;;;;;;10.43;6.32;;;;;;;;;;4898522;29;20528;-82
2022/06/26 00:05:28;;;;;;;10.57;6.45;;;;;;;;;;4913761;29;20140;-85
2022/06/26 00:07:55;;;;;;;8.65;6.85;;;;;;;;;;4903708;29;20048;-85
2022/06/26 00:10:23;;;;;;;8.43;6.57;;;;;;;;;;4916973;29;20059;-85
2022/06/26 00:12:51;;;;;;;9.73;6.32;;;;;;;;;;4904591;29;20083;-85
2022/06/26 00:15:19;;;;;;;8.60;6.63;;;;;;;;;;4921957;29;20032;-83
2022/06/26 00:17:47;;;;;;;9.20;6.28;;;;;;;;;;4912725;29;20075;-82
2022/06/26 00:20:16;;;;;;;10.50;6.50;;;;;;;;;;4894417;29;20043;-82
2022/06/26 00:22:43;;;;;;;9.20;6.88;;;;;;;;;;4914790;29;20036;-82
2022/06/26 00:25:11;;;;;;;8.80;5.97;;;;;;;;;;4918000;29;20052;-85
2022/06/26 00:27:41;;;;;;;10.48;6.57;;;;;;;;;;4915829;29;20046;-83
2022/06/26 00:30:10;;;;;;;8.68;6.78;;;;;;;;;;4900818;29;20045;-82
2022/06/26 00:32:37;;;;;;;7.50;6.65;;;;;;;;;;4915381;29;20044;-82
2022/06/26 00:35:07;;;;;;;10.18;7.22;;;;;;;;;;4902339;29;20036;-82
2022/06/26 00:37:34;;;;;;;9.73;7.35;;;;;;;;;;4917138;29;20082;-85
2022/06/26 00:40:27;;;;;;;11.10;7.35;;;;;;;;;;4917925;29;20501;-85
2022/06/26 00:42:55;;;;;;;9.73;6.85;;;;;;;;;;4897309;29;20060;-85
2022/06/26 00:45:23;;;;;;;9.73;7.63;;;;;;;;;;4910785;29;20404;-83
2022/06/26 00:48:15;;;;;;;9.13;6.15;;;;;;;;;;4909349;29;20119;-82
2022/06/26 00:50:43;;;;;;;12.15;7.70;;;;;;;;;;4912524;29;20052;-82
2022/06/26 00:53:12;;;;;;;9.60;7.18;;;;;;;;;;4918567;29;20365;-82
2022/06/26 00:55:44;;;;;;;11.18;7.35;;;;;;;;;;4914631;29;20059;-81
2022/06/26 00:58:12;;;;;;;8.43;7.05;;;;;;;;;;4892277;29;20111;-82
2022/06/26 01:00:41;;;;;;;10.95;8.07;;;;;;;;;;4890035;29;20493;-82
2022/06/26 01:03:57;;;;;;;8.18;6.72;;;;;;;;;;4914142;29;20103;-83
2022/06/26 01:06:27;;;;;;;7.90;6.15;;;;;;;;;;4912696;29;20052;-82
2022/06/26 01:08:56;;;;;;;9.70;7.25;;;;;;;;;;4894550;29;20044;-82
2022/06/26 01:11:25;;;;;;;12.13;7.13;;;;;;;;;;4893522;29;20049;-82
2022/06/26 01:13:56;;;;;;;8.63;7.20;;;;;;;;;;4896877;29;20053;-82
2022/06/26 01:16:30;;;;;;;11.10;7.68;;;;;;;;;;4903938;29;20037;-82
2022/06/26 01:18:58;;;;;;;9.75;7.10;;;;;;;;;;4902656;29;20130;-82
2022/06/26 01:21:26;;;;;;;12.40;7.95;;;;;;;;;;4908001;29;20401;-82
2022/06/26 01:23:55;;;;;;;9.38;6.85;;;;;;;;;;4896598;29;20127;-82
2022/06/26 01:26:45;;;;;;;9.10;7.75;;;;;;;;;;4902819;29;20024;-85
2022/06/26 01:29:14;;;;;;;9.73;7.57;;;;;;;;;;4913851;29;20473;-85
2022/06/26 01:31:41;;;;;;;9.40;6.75;;;;;;;;;;4910220;29;20146;-85
2022/06/26 01:34:57;;;;;;;9.65;6.72;;;;;;;;;;4908666;29;20032;-85
2022/06/26 01:37:25;;;;;;;11.98;7.15;;;;;;;;;;4912708;29;20063;-82
2022/06/26 01:39:58;;;;;;;11.30;7.22;;;;;;;;;;4912008;29;20055;-82
2022/06/26 01:42:25;;;;;;;11.07;7.80;;;;;;;;;;4899991;29;20482;-82
2022/06/26 01:44:53;;;;;;;8.88;6.95;;;;;;;;;;4902221;29;20122;-82
2022/06/26 01:47:45;;;;;;;9.65;6.97;;;;;;;;;;4918506;29;20114;-85
2022/06/26 01:50:13;;;;;;;9.48;6.47;;;;;;;;;;4906607;29;20446;-85
2022/06/26 01:53:05;;;;;;;9.40;6.50;;;;;;;;;;4917984;29;20048;-85
2022/06/26 01:55:40;;;;;;;10.77;6.65;;;;;;;;;;4917332;29;20390;-85
2022/06/26 01:58:09;;;;;;;10.82;7.55;;;;;;;;;;4915555;29;20046;-85
2022/06/26 02:00:43;;;;;;;9.82;6.97;;;;;;;;;;4904527;29;20047;-85
2022/06/26 02:03:13;;;;;;;9.88;7.18;;;;;;;;;;4927858;29;20405;-85
2022/06/26 02:05:41;;;;;;;9.85;6.88;;;;;;;;;;4900851;29;20573;-82
2022/06/26 02:08:10;;;;;;;7.63;6.38;;;;;;;;;;4900936;29;20059;-82
2022/06/26 02:13:37;;;;;;;8.23;6.75;;;;;;;;;;4916327;29;20048;-82
2022/06/26 02:16:30;;;;;;;;;;;;;;;;;;4915930;29;20043;-85
2022/06/26 02:19:05;;;;;;;11.07;5.75;;;;;;;;;;4923554;29;19930;-86
2022/06/26 02:21:38;;;;;;;10.05;6.88;;;;;;;;;;4923448;29;20036;-85
2022/06/26 02:24:06;;;;;;;9.68;6.78;;;;;;;;;;4920805;29;20047;-85
2022/06/26 02:26:57;;;;;;;8.82;7.03;;;;;;;;;;4900150;29;20470;-85
2022/06/26 02:29:25;;;;;;;8.88;7.10;;;;;;;;;;4889525;29;20036;-85
2022/06/26 02:31:53;;;;;;;13.20;7.25;;;;;;;;;;4918232;29;20075;-85
2022/06/26 02:34:21;;;;;;;9.57;7.20;;;;;;;;;;4912638;29;20496;-85
2022/06/26 02:36:49;;;;;;;9.30;7.30;;;;;;;;;;4915650;29;20048;-85
2022/06/26 02:39:17;;;;;;;9.80;6.80;;;;;;;;;;4902554;29;20044;-85
2022/06/26 02:41:49;;;;;;;8.90;6.68;;;;;;;;;;4913314;29;20084;-85
2022/06/26 02:44:20;;;;;;;11.73;7.00;;;;;;;;;;4914908;29;20040;-85
2022/06/26 02:46:47;;;;;;;9.57;6.80;;;;;;;;;;4907615;29;20056;-85
2022/06/26 02:49:15;;;;;;;10.02;7.75;;;;;;;;;;4918974;29;20131;-85
2022/06/26 02:51:43;;;;;;;9.40;7.45;;;;;;;;;;4913934;29;20063;-86
2022/06/26 02:54:11;;;;;;;10.27;7.47;;;;;;;;;;4918194;29;20115;-85
2022/06/26 02:57:04;;;;;;;10.50;8.02;;;;;;;;;;4919707;29;20024;-85
2022/06/26 02:59:31;;;;;;;10.35;7.72;;;;;;;;;;4915889;29;20511;-85
2022/06/26 03:01:59;;;;;;;10.15;7.45;;;;;;;;;;4927475;29;20044;-85
2022/06/26 03:04:39;;;;;;;14.52;8.15;;;;;;;;;;4897208;29;20048;-85
2022/06/26 03:07:18;;;;;;;10.95;8.05;;;;;;;;;;4904478;29;20049;-85
2022/06/26 03:09:46;;;;;;;10.10;7.65;;;;;;;;;;4919870;29;20429;-85
2022/06/26 03:12:14;;;;;;;12.20;7.80;;;;;;;;;;4913051;29;20040;-85
2022/06/26 03:14:47;;;;;;;12.30;7.80;;;;;;;;;;4920088;29;20048;-84
2022/06/26 03:17:16;;;;;;;12.95;7.65;;;;;;;;;;4916372;29;20496;-85
2022/06/26 03:19:46;;;;;;;11.32;8.23;;;;;;;;;;4918898;29;20087;-85
2022/06/26 03:22:18;;;;;;;11.95;8.40;;;;;;;;;;4903363;29;20044;-85
2022/06/26 03:24:48;;;;;;;13.10;9.00;;;;;;;;;;4920967;29;20481;-83
2022/06/26 03:27:17;;;;;;;10.55;7.97;;;;;;;;;;4901402;29;20063;-85
2022/06/26 03:29:49;;;;;;;10.23;7.88;;;;;;;;;;4915323;29;20067;-86
2022/06/26 03:32:17;;;;;;;11.15;8.05;;;;;;;;;;4914902;29;20602;-85
2022/06/26 03:35:10;;;;;;;9.90;8.05;;;;;;;;;;4900090;29;20037;-82
2022/06/26 03:37:37;;;;;;;9.98;8.13;;;;;;;;;;4903687;29;20074;-82
2022/06/26 03:40:31;;;;;;;12.73;8.25;;;;;;;;;;4912363;29;20033;-82
2022/06/26 03:42:59;;;;;;;9.70;7.93;;;;;;;;;;4897196;29;20047;-82
2022/06/26 03:45:31;;;;;;;12.88;9.25;;;;;;;;;;4902246;29;20508;-82
2022/06/26 03:48:25;;;;;;;12.38;10.18;;;;;;;;;;4901335;29;20032;-82
2022/06/26 03:50:53;;;;;;;13.98;9.55;;;;;;;;;;4915779;29;20052;-82
2022/06/26 03:53:22;;;;;;;12.32;9.48;;;;;;;;;;4897513;29;20048;-82
2022/06/26 03:55:52;;;;;;;13.80;9.70;;;;;;;;;;4899636;29;20038;-85
2022/06/26 03:58:24;;;;;;;11.60;9.70;;;;;;;;;;4916095;29;20044;-85
2022/06/26 04:00:53;;;;;;;13.88;9.32;;;;;;;;;;4909751;29;20040;-85
2022/06/26 04:03:22;;;;;;;13.32;10.25;;;;;;;;;;4918212;29;20465;-85
2022/06/26 04:06:13;;;;;;;12.35;10.10;;;;;;;;;;4904744;29;20493;-85
2022/06/26 04:08:43;;;;;;;14.82;10.00;;;;;;;;;;4914588;29;20045;-85
2022/06/26 04:11:14;;;;;;;14.48;10.30;;;;;;;;;;4890695;29;20104;-85
2022/06/26 04:13:43;;;;;;;13.73;9.73;;;;;;;;;;4915857;29;20049;-86
2022/06/26 04:16:35;;;;;;;13.85;9.77;;;;;;;;;;4912826;29;20044;-82
2022/06/26 04:19:07;;;;;;;15.75;10.38;;;;;;;;;;4913401;29;20056;-82
2022/06/26 04:24:35;;;;;;;14.35;9.93;;;;;;;;;;4889973;29;20048;-84
2022/06/26 04:27:31;;;;;;;;;;;;;;;;;;4914510;29;20513;-85
2022/06/26 04:29:59;;;;;;;16.92;11.50;;;;;;;;;;4916768;29;19937;-85
2022/06/26 04:32:27;;;;;;;13.38;9.43;;;;;;;;;;4909386;29;20048;-85
2022/06/26 04:34:57;;;;;;;13.18;10.43;;;;;;;;;;4910927;29;20056;-82
2022/06/26 04:37:26;;;;;;;14.00;10.43;;;;;;;;;;4903339;29;20056;-82
2022/06/26 04:39:57;;;;;;;16.05;10.68;;;;;;;;;;4892264;29;20048;-82
2022/06/26 04:42:25;;;;;;;13.50;10.63;;;;;;;;;;4881507;29;20681;-82
2022/06/26 04:44:53;;;;;;;12.35;9.88;;;;;;;;;;4913073;29;20044;-83
2022/06/26 04:47:23;;;;;;;15.52;10.77;;;;;;;;;;4901763;29;20068;-85
2022/06/26 04:49:58;;;;;;;14.48;10.18;;;;;;;;;;4918379;29;20048;-85
2022/06/26 04:55:30;;;;;;;13.32;9.50;;;;;;;;;;4916016;29;20056;-85
2022/06/26 04:57:57;;;;;;;16.67;8.70;;;;;;;;;;4910319;29;20135;-85
2022/06/26 05:00:25;;;;;;;11.75;10.05;;;;;;;;;;4915768;29;20509;-85
2022/06/26 05:03:13;;;;;;;16.58;10.02;;;;;;;;;;4911861;29;20048;-86
2022/06/26 05:05:55;;;;;;;15.43;9.70;;;;;;;;;;4898441;29;20067;-82
2022/06/26 05:08:37;;;;;;;12.55;9.48;;;;;;;;;;4900223;29;20060;-82
2022/06/26 05:11:05;;;;;;;12.15;9.20;;;;;;;;;;4911024;29;20048;-82
2022/06/26 05:13:57;;;;;;;14.48;9.70;;;;;;;;;;4916485;29;20055;-82
2022/06/26 05:16:35;;;;;;;14.45;9.85;;;;;;;;;;4883115;29;20040;-82
2022/06/26 05:19:05;;;;;;;15.07;9.18;;;;;;;;;;4909631;29;20044;-82
2022/06/26 05:21:40;;;;;;;10.60;8.63;;;;;;;;;;4911346;29;20048;-82
2022/06/26 05:24:13;;;;;;;12.23;9.10;;;;;;;;;;4913688;29;20409;-82
2022/06/26 05:27:05;;;;;;;11.27;8.85;;;;;;;;;;4916736;29;20047;-85
2022/06/26 05:29:43;;;;;;;11.60;8.55;;;;;;;;;;4925241;29;20131;-86
2022/06/26 05:32:09;;;;;;;11.40;8.93;;;;;;;;;;4909107;29;20154;-86
2022/06/26 05:34:41;;;;;;;12.35;8.60;;;;;;;;;;4905914;29;20536;-86
2022/06/26 05:37:39;;;;;;;10.43;8.70;;;;;;;;;;4922782;29;20051;-85
2022/06/26 05:40:08;;;;;;;9.63;7.22;;;;;;;;;;4905660;29;20121;-86
2022/06/26 05:42:41;;;;;;;12.38;8.38;;;;;;;;;;4919116;29;20147;-86
2022/06/26 05:45:10;;;;;;;12.60;8.10;;;;;;;;;;4921292;29;20066;-83
2022/06/26 05:47:38;;;;;;;14.15;8.38;;;;;;;;;;4898068;29;20048;-82
2022/06/26 05:50:25;;;;;;;8.57;7.68;;;;;;;;;;4915845;29;20116;-82
2022/06/26 05:53:11;;;;;;;9.00;6.70;;;;;;;;;;4907124;29;20516;-82
2022/06/26 05:56:01;;;;;;;9.18;6.97;;;;;;;;;;4917168;29;20048;-86
2022/06/26 05:58:48;;;;;;;7.85;6.60;;;;;;;;;;4912826;29;20122;-86
2022/06/26 06:01:33;;;;;;;8.82;7.00;;;;;;;;;;4931356;29;20044;-86
2022/06/26 06:04:09;;;;;;;9.30;6.88;;;;;;;;;;4905208;29;20083;-86
2022/06/26 06:07:04;;;;;;;9.45;6.90;;;;;;;;;;4931697;29;20050;-85
2022/06/26 06:09:32;;;;;;;7.53;6.53;;;;;;;;;;4926430;29;20560;-86
2022/06/26 06:12:25;;;;;;;10.25;6.70;;;;;;;;;;4915998;29;20040;-85
2022/06/26 06:15:23;;;;;;;9.02;6.57;;;;;;;;;;4910382;29;20046;-83
2022/06/26 06:18:15;;;;;;;8.68;6.43;;;;;;;;;;4900634;29;20056;-82
2022/06/26 06:20:45;;;;;;;8.20;6.05;;;;;;;;;;4915658;29;20047;-83
2022/06/26 06:23:34;;;;;;;9.82;5.72;;;;;;;;;;4902607;29;20374;-83
2022/06/26 06:26:03;;;;;;;9.05;6.22;;;;;;;;;;4896970;29;20128;-83
2022/06/26 06:28:31;;;;;;;9.43;5.47;;;;;;;;;;4893732;29;20053;-83
2022/06/26 06:30:59;;;;;;;7.20;6.18;;;;;;;;;;4914514;29;20386;-83
2022/06/26 06:33:53;;;;;;;7.63;5.55;;;;;;;;;;4920254;29;20055;-83
2022/06/26 06:36:21;;;;;;;6.60;5.13;;;;;;;;;;4897419;29;20044;-83
2022/06/26 06:38:49;;;;;;;8.82;5.50;;;;;;;;;;4899452;29;20064;-83
2022/06/26 06:41:17;;;;;;;8.73;5.60;;;;;;;;;;4915801;29;20062;-83
2022/06/26 06:44:11;;;;;;;9.35;6.15;;;;;;;;;;4915640;29;20101;-83
2022/06/26 06:46:57;;;;;;;7.47;5.40;;;;;;;;;;4901225;29;20052;-83
2022/06/26 06:49:32;;;;;;;7.70;5.10;;;;;;;;;;4909061;29;20136;-83
2022/06/26 06:52:23;;;;;;;6.28;4.93;;;;;;;;;;4918898;29;20059;-82
2022/06/26 06:55:15;;;;;;;7.75;5.38;;;;;;;;;;4917141;29;20127;-82
2022/06/26 06:57:43;;;;;;;6.35;5.30;;;;;;;;;;4902023;29;20044;-83
2022/06/26 07:00:12;;;;;;;6.75;5.43;;;;;;;;;;4908304;29;20105;-83
2022/06/26 07:02:40;;;;;;;7.68;5.30;;;;;;;;;;4907016;29;20059;-83
2022/06/26 07:05:08;;;;;;;7.78;4.72;;;;;;;;;;4915011;29;20412;-85
2022/06/26 07:07:36;;;;;;;7.25;4.88;;;;;;;;;;4894741;29;20040;-83
2022/06/26 07:10:29;;;;;;;8.38;4.53;;;;;;;;;;4913640;29;20184;-81
2022/06/26 07:13:00;;;;;;;5.50;4.18;;;;;;;;;;4912298;29;20160;-82
2022/06/26 07:15:53;;;;;;;6.00;4.20;;;;;;;;;;4911085;29;20044;-83
2022/06/26 07:18:22;;;;;;;5.95;4.30;;;;;;;;;;4894749;29;20093;-83
2022/06/26 07:21:13;;;;;;;5.32;4.13;;;;;;;;;;4905199;29;20147;-83
2022/06/26 07:24:12;;;;;;;5.72;4.03;;;;;;;;;;4891868;29;20044;-82
2022/06/26 07:27:03;;;;;;;6.50;3.70;;;;;;;;;;4914916;29;20093;-83
2022/06/26 07:29:35;;;;;;;6.50;3.95;;;;;;;;;;4902140;29;20140;-83
2022/06/26 07:32:04;;;;;;;4.80;3.65;;;;;;;;;;4905123;29;20056;-82
2022/06/26 07:34:31;;;;;;;4.70;3.35;;;;;;;;;;4896837;29;20044;-84
2022/06/26 07:37:23;;;;;;;5.18;3.30;;;;;;;;;;4907137;29;20499;-85
2022/06/26 07:39:51;;;;;;;5.38;3.60;;;;;;;;;;4909590;29;20040;-85
2022/06/26 07:42:19;;;;;;;5.75;3.58;;;;;;;;;;4921389;29;20063;-85
2022/06/26 07:44:48;;;;;;;5.68;3.60;;;;;;;;;;4906985;29;20100;-83
2022/06/26 07:47:15;;;;;;;5.35;3.50;;;;;;;;;;4891708;29;20079;-85
2022/06/26 07:49:57;;;;;;;6.22;3.00;;;;;;;;;;4889617;29;20052;-85
2022/06/26 07:52:51;;;;;;;5.07;3.13;;;;;;;;;;4916788;29;20040;-86
2022/06/26 07:55:19;;;;;;;5.10;3.42;;;;;;;;;;4920719;29;20100;-83
2022/06/26 07:57:47;;;;;;;4.32;3.22;;;;;;;;;;4917239;29;20043;-84
2022/06/26 08:00:15;;;;;;;5.50;3.53;;;;;;;;;;4915876;29;20043;-82
2022/06/26 08:02:43;;;;;;;4.65;3.60;;;;;;;;;;4918122;29;20053;-82
2022/06/26 08:05:36;;;;;;;5.50;3.50;;;;;;;;;;4912591;29;20035;-86
2022/06/26 08:08:10;;;;;;;4.45;3.28;;;;;;;;;;4914858;29;20131;-87
2022/06/26 08:10:43;;;;;;;5.28;2.92;;;;;;;;;;4922968;29;20118;-86
2022/06/26 08:13:11;;;;;;;5.07;2.72;;;;;;;;;;4919308;29;20047;-86
2022/06/26 08:15:44;;;;;;;7.50;3.10;;;;;;;;;;4916411;29;20399;-86
2022/06/26 08:18:11;;;;;;;4.65;3.03;;;;;;;;;;4913203;29;20051;-87
2022/06/26 08:24:15;;;;;;;4.78;2.90;;;;;;;;;;4914158;29;20911;-87
2022/06/26 08:26:47;;;;;;;5.30;3.30;;;;;;;;;;4919942;29;20170;-87
2022/06/26 08:29:15;;;;;;;5.50;2.90;;;;;;;;;;4922849;29;20048;-86
2022/06/26 08:31:43;;;;;;;4.00;2.90;;;;;;;;;;4912540;29;20104;-86
2022/06/26 08:34:11;;;;;;;7.35;3.40;;;;;;;;;;4918839;29;20926;-87
2022/06/26 08:36:39;;;;;;;5.15;3.20;;;;;;;;;;4915911;29;20473;-86
2022/06/26 08:39:35;;;;;;;3.85;3.17;;;;;;;;;;4902722;29;20051;-86
2022/06/26 08:42:03;;;;;;;4.65;3.30;;;;;;;;;;4914467;29;20127;-87
2022/06/26 08:44:32;;;;;;;7.13;3.20;;;;;;;;;;4913901;29;20044;-81
2022/06/26 08:47:02;;;;;;;4.47;3.42;;;;;;;;;;4919634;29;20918;-86
2022/06/26 08:49:29;;;;;;;5.70;3.55;;;;;;;;;;4916991;29;20066;-86
2022/06/26 08:52:25;;;;;;;5.35;3.63;;;;;;;;;;4915546;29;20432;-86
2022/06/26 08:54:54;;;;;;;6.93;3.67;;;;;;;;;;4898072;29;20039;-82
2022/06/26 08:57:26;;;;;;;6.72;3.17;;;;;;;;;;4920873;29;20051;-86
2022/06/26 08:59:53;;;;;;;8.23;3.72;;;;;;;;;;4919064;29;20092;-86
2022/06/26 09:02:25;;;;;;;7.28;3.67;;;;;;;;;;4918122;29;20473;-86
2022/06/26 09:05:17;;;;;;;5.35;3.25;;;;;;;;;;4914957;29;20040;-87
2022/06/26 09:07:52;;;;;;;10.00;3.08;;;;;;;;;;4918917;29;20048;-86
2022/06/26 09:10:20;;;;;;;5.47;2.80;;;;;;;;;;4917135;29;20048;-85
2022/06/26 09:12:55;;;;;;;4.07;2.60;;;;;;;;;;4899471;29;20044;-81
2022/06/26 09:16:03;;;;;;;4.88;2.20;;;;;;;;;;4901314;29;20047;-81
2022/06/26 09:18:34;;;;;;;5.47;2.20;;;;;;;;;;4901572;29;20116;-81
2022/06/26 09:21:26;;;;;;;4.25;1.95;;;;;;;;;;4912281;29;20111;-82
2022/06/26 09:24:20;;;;;;;2.70;1.80;;;;;;;;;;4905422;29;20036;-81
2022/06/26 09:27:15;;;;;;;2.90;1.90;;;;;;;;;;4909411;29;20139;-81
2022/06/26 09:30:10;;;;;;;3.17;1.90;;;;;;;;;;4908229;29;20041;-80
2022/06/26 09:32:37;;;;;;;4.03;1.80;;;;;;;;;;4913579;29;20056;-85
2022/06/26 09:35:06;;;;;;;5.18;2.08;;;;;;;;;;4916793;29;20096;-86
2022/06/26 09:37:39;;;;;;;3.20;2.13;;;;;;;;;;4900245;29;20044;-86
2022/06/26 09:40:29;;;;;;;3.85;2.15;;;;;;;;;;4920526;29;20493;-86
2022/06/26 09:42:57;;;;;;;6.32;1.95;;;;;;;;;;4926330;29;20107;-86
2022/06/26 09:45:25;;;;;;;3.40;2.00;;;;;;;;;;4921023;29;20095;-86
2022/06/26 09:47:58;;;;;;;5.22;1.90;;;;;;;;;;4916675;29;20040;-86
2022/06/26 09:50:25;;;;;;;3.97;2.47;;;;;;;;;;4918219;29;20036;-86
2022/06/26 09:52:57;;;;;;;4.75;1.92;;;;;;;;;;4908682;29;20089;-81
2022/06/26 09:55:30;;;;;;;2.90;1.90;;;;;;;;;;4887691;29;20425;-81
2022/06/26 09:57:58;;;;;;;3.70;2.15;;;;;;;;;;4902237;29;20044;-82
2022/06/26 10:00:37;;;;;;;5.57;2.20;;;;;;;;;;4892551;29;20048;-81
2022/06/26 10:08:42;;;;;;;3.67;2.10;;;;;;;;;;4908568;29;20052;-81
2022/06/26 10:11:10;;;;;;;2.67;2.00;;;;;;;;;;4912930;29;20088;-82
2022/06/26 10:13:40;;;;;;;5.00;2.40;;;;;;;;;;4919325;29;20048;-85
2022/06/26 10:16:36;;;;;;;4.72;2.30;;;;;;;;;;4930334;29;20127;-86
2022/06/26 10:19:17;;;;;;;5.05;2.63;;;;;;;;;;4902386;29;20055;-85
2022/06/26 10:21:51;;;;;;;4.45;2.28;;;;;;;;;;4906637;29;20143;-82
2022/06/26 10:24:19;;;;;;;4.43;2.30;;;;;;;;;;4899201;29;20040;-82
2022/06/26 10:26:52;;;;;;;3.53;2.53;;;;;;;;;;4915029;29;20048;-82
2022/06/26 10:29:30;;;;;;;4.03;2.75;;;;;;;;;;4915605;29;20122;-81
2022/06/26 10:34:56;;;;;;;3.47;2.30;;;;;;;;;;4911479;29;20079;-81
2022/06/26 10:37:24;;;;;;;3.70;2.40;;;;;;;;;;4915571;29;20115;-81
2022/06/26 10:39:53;;;;;;;3.55;2.50;;;;;;;;;;4912785;29;20051;-81
2022/06/26 10:45:38;;;;;;;3.53;2.17;;;;;;;;;;4910762;29;20059;-81
2022/06/26 10:48:20;;;;;;;3.50;1.75;;;;;;;;;;4913155;29;20040;-81
2022/06/26 10:51:25;;;;;;;4.57;2.00;;;;;;;;;;4909539;29;20134;-82
2022/06/26 10:53:57;;;;;;;3.38;2.17;;;;;;;;;;4920115;29;20050;-82
2022/06/26 10:56:25;;;;;;;5.20;1.95;;;;;;;;;;4918411;29;20059;-82
2022/06/26 10:59:00;;;;;;;3.80;2.00;;;;;;;;;;4894980;29;20048;-81
2022/06/26 11:01:28;;;;;;;4.32;1.80;;;;;;;;;;4908210;29;20373;-85
2022/06/26 11:04:02;;;;;;;4.20;2.10;;;;;;;;;;4912418;29;20060;-85
2022/06/26 11:06:29;;;;;;;4.10;2.10;;;;;;;;;;4916434;29;20146;-85
2022/06/26 11:09:24;;;;;;;2.83;1.77;;;;;;;;;;4922106;29;20047;-86
2022/06/26 11:11:52;;;;;;;3.72;1.80;;;;;;;;;;4911401;29;20496;-85
2022/06/26 11:14:19;;;;;;;3.67;2.10;;;;;;;;;;4900127;29;20091;-86
2022/06/26 11:17:13;;;;;;;3.78;2.10;;;;;;;;;;4909343;29;20064;-87
2022/06/26 11:22:33;;;;;;;6.05;2.10;;;;;;;;;;4899823;29;20048;-83
2022/06/26 11:25:25;;;;;;;3.45;2.20;;;;;;;;;;4920024;29;20392;-84
2022/06/26 11:27:58;;;;;;;4.97;2.38;;;;;;;;;;4913963;29;20053;-84
2022/06/26 11:30:26;;;;;;;4.60;2.00;;;;;;;;;;4902763;29;20095;-84
2022/06/26 11:32:53;;;;;;;2.95;2.30;;;;;;;;;;4911993;29;20134;-90
2022/06/26 11:35:26;;;;;;;5.28;2.45;;;;;;;;;;4919070;29;20071;-90
2022/06/26 11:37:57;;;;;;;4.15;2.38;;;;;;;;;;4912226;29;20047;-90
2022/06/26 11:40:25;;;;;;;4.72;2.58;;;;;;;;;;4923676;29;20088;-89
2022/06/26 11:42:55;;;;;;;5.97;2.65;;;;;;;;;;4910491;29;20052;-90
2022/06/26 11:45:33;;;;;;;4.97;3.60;;;;;;;;;;4929721;29;20523;-89
2022/06/26 11:48:09;;;;;;;4.32;2.72;;;;;;;;;;4930975;29;20048;-90
2022/06/26 11:50:37;;;;;;;5.40;2.80;;;;;;;;;;4934064;29;20395;-90
2022/06/26 11:53:33;;;;;;;9.77;3.30;;;;;;;;;;4911898;29;20048;-84
2022/06/26 11:56:03;;;;;;;5.43;3.08;;;;;;;;;;4894101;29;20060;-84
2022/06/26 11:58:33;;;;;;;6.53;2.95;;;;;;;;;;4883421;29;20047;-85
2022/06/26 12:01:13;;;;;;;5.50;3.25;;;;;;;;;;4904501;29;20059;-85
2022/06/26 12:03:51;;;;;;;5.43;3.35;;;;;;;;;;4911783;29;20056;-89
2022/06/26 12:06:48;;;;;;;6.53;2.83;;;;;;;;;;4901499;29;20035;-89
2022/06/26 12:09:25;;;;;;;6.18;3.13;;;;;;;;;;4908165;29;20048;-89
2022/06/26 12:11:55;;;;;;;5.40;2.85;;;;;;;;;;4915406;29;20496;-85
2022/06/26 12:14:28;;;;;;;5.53;3.22;;;;;;;;;;4895871;29;20021;-84
2022/06/26 12:17:29;;;;;;;7.63;3.30;;;;;;;;;;4914820;29;20191;-85
2022/06/26 12:20:07;;;;;;;5.18;3.00;;;;;;;;;;4908344;29;20044;-84
2022/06/26 12:22:59;;;;;;;4.57;3.00;;;;;;;;;;4897322;29;20485;-88
2022/06/26 12:25:38;;;;;;;9.98;3.70;;;;;;;;;;4890679;29;20099;-93
2022/06/26 12:28:22;;;;;;;4.53;2.78;;;;;;;;;;4900086;29;20097;-87
2022/06/26 12:30:50;;;;;;;6.28;2.88;;;;;;;;;;4921848;29;20044;-86
2022/06/26 12:33:18;;;;;;;5.97;2.90;;;;;;;;;;4890778;29;20797;-82
2022/06/26 12:35:46;;;;;;;5.25;3.10;;;;;;;;;;4923399;29;20082;-91
2022/06/26 12:38:38;;;;;;;6.07;3.13;;;;;;;;;;4922461;29;20459;-89
2022/06/26 12:41:16;;;;;;;7.80;3.35;;;;;;;;;;4916319;29;20052;-88
2022/06/26 12:44:10;;;;;;;5.70;2.90;;;;;;;;;;4915565;29;20051;-89
2022/06/26 12:46:37;;;;;;;5.25;3.25;;;;;;;;;;4914600;29;20550;-89
2022/06/26 12:49:05;;;;;;;5.95;3.40;;;;;;;;;;4891700;29;20047;-89
2022/06/26 12:51:34;;;;;;;4.60;3.35;;;;;;;;;;4917430;29;20497;-89
2022/06/26 12:54:07;;;;;;;5.28;3.28;;;;;;;;;;4923594;29;20051;-90
2022/06/26 12:56:35;;;;;;;7.28;3.97;;;;;;;;;;4903944;29;20048;-88
2022/06/26 12:59:07;;;;;;;6.28;3.50;;;;;;;;;;4910415;29;20775;-87
2022/06/26 13:01:35;;;;;;;5.35;3.40;;;;;;;;;;4911291;29;20085;-89
2022/06/26 13:04:04;;;;;;;6.72;3.38;;;;;;;;;;4906137;29;20052;-89
2022/06/26 13:06:42;;;;;;;5.93;2.72;;;;;;;;;;4912812;29;20799;-88
2022/06/26 13:09:10;;;;;;;9.38;3.10;;;;;;;;;;4916285;29;20044;-88
2022/06/26 13:11:37;;;;;;;4.93;3.50;;;;;;;;;;4900605;29;20120;-88
2022/06/26 13:14:05;;;;;;;11.90;2.80;;;;;;;;;;4899856;29;20071;-87
2022/06/26 13:16:59;;;;;;;5.05;2.78;;;;;;;;;;4916030;29;20063;-87
2022/06/26 13:19:27;;;;;;;4.50;2.70;;;;;;;;;;4915755;29;20050;-86
2022/06/26 13:21:56;;;;;;;5.45;3.10;;;;;;;;;;4892391;29;20095;-91
2022/06/26 13:24:47;;;;;;;4.25;2.55;;;;;;;;;;4920492;29;20488;-91
2022/06/26 13:27:16;;;;;;;4.70;2.67;;;;;;;;;;4937092;29;20040;-89
2022/06/26 13:29:43;;;;;;;6.28;3.13;;;;;;;;;;4919840;29;20098;-90
2022/06/26 13:32:19;;;;;;;4.45;3.05;;;;;;;;;;4903258;29;20481;-87
2022/06/26 13:34:47;;;;;;;6.00;2.70;;;;;;;;;;4885566;29;20057;-86
2022/06/26 13:37:17;;;;;;;6.60;3.15;;;;;;;;;;4918940;29;20123;-86
2022/06/26 13:39:49;;;;;;;4.88;2.60;;;;;;;;;;4918994;29;20047;-86
2022/06/26 13:42:18;;;;;;;4.55;2.65;;;;;;;;;;4923151;29;20064;-88
2022/06/26 13:44:51;;;;;;;6.85;2.70;;;;;;;;;;4917441;29;20049;-90
2022/06/26 13:47:20;;;;;;;6.10;3.00;;;;;;;;;;4916167;29;20055;-89
2022/06/26 13:49:52;;;;;;;4.55;2.30;;;;;;;;;;4918450;29;20551;-89
2022/06/26 13:52:19;;;;;;;5.07;2.35;;;;;;;;;;4917653;29;20040;-89
2022/06/26 13:54:47;;;;;;;5.72;2.35;;;;;;;;;;4920076;29;20051;-89
2022/06/26 13:57:16;;;;;;;4.72;2.70;;;;;;;;;;4900282;29;20043;-89
2022/06/26 13:59:43;;;;;;;5.00;2.70;;;;;;;;;;4918661;29;20043;-88
2022/06/26 14:02:14;;;;;;;4.20;2.28;;;;;;;;;;4921430;29;20040;-88
2022/06/26 14:04:41;;;;;;;6.38;2.47;;;;;;;;;;4917242;29;20055;-88
2022/06/26 14:07:10;;;;;;;7.68;2.53;;;;;;;;;;4925830;29;20043;-89
2022/06/26 14:10:01;;;;;;;7.07;2.50;;;;;;;;;;4914167;29;20040;-88
2022/06/26 14:12:33;;;;;;;4.45;2.45;;;;;;;;;;4910797;29;20044;-90
2022/06/26 14:15:02;;;;;;;3.10;2.20;;;;;;;;;;4931472;29;20050;-88
2022/06/26 14:17:29;;;;;;;3.70;2.40;;;;;;;;;;4918767;29;20044;-88
2022/06/26 14:20:01;;;;;;;4.47;2.38;;;;;;;;;;4886380;29;20049;-88
2022/06/26 14:28:01;;;;;;;4.85;2.20;;;;;;;;;;4921833;29;20044;-88
2022/06/26 14:30:29;;;;;;;6.93;2.50;;;;;;;;;;4891611;29;20041;-89
2022/06/26 14:32:58;;;;;;;5.38;2.28;;;;;;;;;;4920742;29;20111;-86
2022/06/26 14:35:26;;;;;;;5.00;1.90;;;;;;;;;;4927578;29;20040;-86
2022/06/26 14:37:54;;;;;;;3.45;2.05;;;;;;;;;;4922162;29;20040;-86
2022/06/26 14:40:21;;;;;;;3.05;1.90;;;;;;;;;;4915788;29;20068;-86
2022/06/26 14:42:53;;;;;;;3.80;1.90;;;;;;;;;;4921463;29;20054;-86
2022/06/26 14:45:47;;;;;;;6.50;2.20;;;;;;;;;;4926002;29;20036;-87
2022/06/26 14:48:15;;;;;;;3.17;1.77;;;;;;;;;;4927117;29;20489;-86
2022/06/26 14:51:07;;;;;;;4.00;1.85;;;;;;;;;;4912193;29;20047;-88
2022/06/26 14:53:39;;;;;;;3.50;1.67;;;;;;;;;;4918408;29;20561;-89
2022/06/26 14:56:07;;;;;;;2.78;1.50;;;;;;;;;;4902251;29;20055;-88
2022/06/26 14:58:59;;;;;;;3.70;1.45;;;;;;;;;;4919067;29;20504;-88
2022/06/26 15:01:27;;;;;;;6.70;1.70;;;;;;;;;;4913689;29;20429;-88
2022/06/26 15:04:02;;;;;;;4.03;1.50;;;;;;;;;;4904479;29;20044;-88
2022/06/26 15:06:29;;;;;;;2.50;1.40;;;;;;;;;;4915855;29;20082;-88
2022/06/26 15:08:57;;;;;;;4.38;1.60;;;;;;;;;;4916053;29;20043;-88
2022/06/26 15:11:25;;;;;;;2.17;1.48;;;;;;;;;;4919454;29;20096;-88
2022/06/26 15:13:53;;;;;;;3.63;1.38;;;;;;;;;;4925914;29;20493;-89
2022/06/26 15:16:21;;;;;;;2.55;1.40;;;;;;;;;;4925546;29;20079;-89
2022/06/26 15:18:51;;;;;;;3.38;1.30;;;;;;;;;;4937213;29;20134;-89
2022/06/26 15:21:19;;;;;;;4.00;1.60;;;;;;;;;;4901656;29;20381;-88
2022/06/26 15:24:12;;;;;;;3.05;1.33;;;;;;;;;;4913617;29;20040;-85
2022/06/26 15:27:05;;;;;;;2.85;1.55;;;;;;;;;;4921419;29;20044;-85
2022/06/26 15:29:44;;;;;;;3.70;1.58;;;;;;;;;;4911991;29;20133;-85
2022/06/26 15:32:21;;;;;;;5.10;1.83;;;;;;;;;;4911622;29;20444;-86
2022/06/26 15:34:50;;;;;;;2.85;1.45;;;;;;;;;;4902544;29;20052;-88
2022/06/26 15:37:22;;;;;;;3.47;1.52;;;;;;;;;;4926615;29;20050;-87
2022/06/26 15:40:13;;;;;;;2.67;1.40;;;;;;;;;;4905025;29;20036;-87
2022/06/26 15:42:42;;;;;;;4.82;1.50;;;;;;;;;;4906847;29;20052;-86
2022/06/26 15:45:10;;;;;;;4.05;1.50;;;;;;;;;;4915085;29;20572;-88
2022/06/26 15:47:37;;;;;;;2.47;1.30;;;;;;;;;;4923993;29;20107;-85
2022/06/26 15:50:06;;;;;;;4.40;1.45;;;;;;;;;;4912782;29;20047;-85
2022/06/26 15:52:33;;;;;;;3.75;1.40;;;;;;;;;;4901186;29;20044;-88
2022/06/26 15:55:02;;;;;;;2.92;1.38;;;;;;;;;;4902299;29;20515;-88
2022/06/26 15:57:30;;;;;;;4.47;1.65;;;;;;;;;;4924687;29;20044;-88